createdAt,value
2022-08-31T00:02:39.028Z,1.70
2022-08-31T00:05:06.404Z,1.80
2022-08-31T00:07:34.945Z,1.75
2022-08-31T00:10:13.893Z,2.55
2022-08-31T00:12:42.284Z,2.08
2022-08-31T00:15:10.091Z,1.98
2022-08-31T00:17:36.579Z,2.22
2022-08-31T00:20:32.315Z,1.70
2022-08-31T00:23:02.171Z,1.85
2022-08-31T00:25:28.704Z,1.60
2022-08-31T00:27:55.845Z,1.77
2022-08-31T00:30:23.314Z,1.70
2022-08-31T00:32:49.736Z,1.80
2022-08-31T00:35:17.069Z,1.70
2022-08-31T00:37:43.477Z,1.70
2022-08-31T00:40:10.507Z,1.73
2022-08-31T00:42:36.988Z,1.88
2022-08-31T00:45:04.695Z,1.33
2022-08-31T00:47:31.938Z,1.48
2022-08-31T00:50:00.084Z,1.58
2022-08-31T00:52:35.547Z,1.50
2022-08-31T00:55:35.324Z,2.00
2022-08-31T00:58:07.787Z,1.30
2022-08-31T01:00:35.159Z,2.00
2022-08-31T01:03:03.862Z,1.80
2022-08-31T01:05:31.340Z,1.50
2022-08-31T01:08:00.511Z,1.85
2022-08-31T01:10:31.696Z,2.03
2022-08-31T01:12:58.599Z,1.48
2022-08-31T01:15:26.749Z,1.52
2022-08-31T01:17:57.009Z,1.95
2022-08-31T01:20:26.108Z,1.92
2022-08-31T01:23:06.171Z,1.92
2022-08-31T01:25:35.154Z,2.03
2022-08-31T01:28:05.342Z,1.88
2022-08-31T01:30:32.450Z,1.50
2022-08-31T01:32:59.288Z,1.80
2022-08-31T01:35:26.444Z,1.52
2022-08-31T01:37:53.752Z,1.70
2022-08-31T01:40:20.488Z,1.88
2022-08-31T01:42:47.097Z,2.10
2022-08-31T01:45:14.768Z,1.48
2022-08-31T01:47:41.535Z,1.50
2022-08-31T01:50:09.022Z,1.98
2022-08-31T01:52:37.852Z,1.70
2022-08-31T01:55:06.942Z,1.90
2022-08-31T01:57:34.712Z,2.13
2022-08-31T02:00:20.190Z,1.98
2022-08-31T02:02:47.245Z,1.70
2022-08-31T02:05:14.488Z,1.80
2022-08-31T02:07:41.905Z,2.05
2022-08-31T02:10:09.407Z,1.35
2022-08-31T02:12:35.901Z,1.95
2022-08-31T02:15:02.573Z,1.75
2022-08-31T02:17:29.019Z,1.60
2022-08-31T02:19:55.680Z,1.75
2022-08-31T02:22:22.123Z,1.88
2022-08-31T02:24:48.570Z,1.73
2022-08-31T02:27:16.648Z,1.80
2022-08-31T02:29:43.949Z,1.67
2022-08-31T02:32:20.233Z,1.98
2022-08-31T02:34:48.556Z,1.75
2022-08-31T02:37:15.690Z,1.73
2022-08-31T02:39:44.031Z,2.30
2022-08-31T02:42:11.084Z,1.88
2022-08-31T02:44:37.604Z,1.83
2022-08-31T02:47:04.247Z,1.80
2022-08-31T02:49:38.886Z,2.20
2022-08-31T02:52:05.351Z,1.90
2022-08-31T02:54:32.006Z,1.80
2022-08-31T02:56:58.751Z,2.72
2022-08-31T02:59:25.190Z,2.15
2022-08-31T03:01:52.854Z,1.67
2022-08-31T03:04:19.450Z,1.80
2022-08-31T03:06:47.740Z,1.98
2022-08-31T03:09:15.906Z,2.15
2022-08-31T03:11:42.986Z,1.77
2022-08-31T03:14:09.511Z,2.00
2022-08-31T03:16:39.362Z,2.00
2022-08-31T03:19:07.078Z,2.72
2022-08-31T03:21:33.711Z,1.98
2022-08-31T03:24:00.171Z,2.00
2022-08-31T03:26:27.688Z,2.75
2022-08-31T03:28:55.862Z,2.22
2022-08-31T03:31:40.717Z,2.65
2022-08-31T03:34:07.275Z,2.50
2022-08-31T03:36:33.775Z,2.33
2022-08-31T03:39:00.207Z,1.90
2022-08-31T03:41:26.882Z,2.17
2022-08-31T03:43:55.218Z,1.98
2022-08-31T03:46:21.739Z,1.92
2022-08-31T03:48:48.640Z,1.67
2022-08-31T03:51:16.611Z,1.98
2022-08-31T03:53:43.158Z,2.45
2022-08-31T03:56:15.897Z,1.80
2022-08-31T03:58:42.360Z,2.47
2022-08-31T04:01:13.709Z,2.17
2022-08-31T04:04:02.166Z,2.60
2022-08-31T04:06:47.086Z,2.15
2022-08-31T04:09:39.742Z,2.10
2022-08-31T04:12:34.888Z,2.20
2022-08-31T04:15:10.681Z,2.17
2022-08-31T04:18:06.599Z,2.35
2022-08-31T04:23:14.002Z,1.85
2022-08-31T04:25:49.654Z,2.58
2022-08-31T04:28:16.093Z,3.30
2022-08-31T04:30:44.603Z,2.95
2022-08-31T04:33:14.828Z,2.22
2022-08-31T04:35:42.337Z,3.03
2022-08-31T04:38:10.142Z,2.85
2022-08-31T04:40:38.708Z,2.65
2022-08-31T04:43:06.478Z,2.97
2022-08-31T04:45:33.121Z,2.58
2022-08-31T04:47:59.603Z,2.85
2022-08-31T04:50:26.063Z,3.17
2022-08-31T04:53:08.288Z,2.58
2022-08-31T04:55:39.979Z,2.22
2022-08-31T04:58:06.918Z,2.08
2022-08-31T05:00:35.383Z,3.58
2022-08-31T05:03:19.857Z,3.20
2022-08-31T05:05:52.263Z,2.95
2022-08-31T05:08:19.447Z,2.67
2022-08-31T05:10:46.407Z,2.67
2022-08-31T05:13:13.507Z,2.55
2022-08-31T05:15:42.288Z,3.92
2022-08-31T05:18:09.918Z,2.97
2022-08-31T05:20:41.179Z,2.80
2022-08-31T05:23:08.622Z,3.25
2022-08-31T05:25:38.943Z,2.70
2022-08-31T05:28:05.377Z,3.67
2022-08-31T05:30:31.899Z,3.10
2022-08-31T05:33:04.776Z,3.55
2022-08-31T05:35:31.606Z,2.85
2022-08-31T05:37:58.037Z,3.45
2022-08-31T05:40:24.633Z,3.22
2022-08-31T05:42:51.150Z,3.10
2022-08-31T05:45:18.968Z,2.95
2022-08-31T05:47:47.039Z,2.60
2022-08-31T05:50:13.527Z,2.95
2022-08-31T05:52:41.701Z,3.05
2022-08-31T05:55:08.855Z,3.10
2022-08-31T05:57:35.346Z,2.88
2022-08-31T06:00:01.799Z,2.58
2022-08-31T06:02:29.397Z,2.47
2022-08-31T06:04:57.698Z,2.60
2022-08-31T06:07:24.379Z,2.47
2022-08-31T06:09:55.642Z,2.95
2022-08-31T06:12:25.800Z,3.10
2022-08-31T06:14:55.314Z,3.20
2022-08-31T06:17:21.820Z,3.58
2022-08-31T06:19:50.051Z,2.85
2022-08-31T06:22:17.289Z,2.38
2022-08-31T06:24:44.305Z,2.88
2022-08-31T06:27:10.757Z,2.05
2022-08-31T06:29:37.599Z,2.20
2022-08-31T06:32:10.074Z,1.80
2022-08-31T06:34:42.702Z,2.58
2022-08-31T06:37:21.303Z,2.38
2022-08-31T06:40:15.586Z,2.50
2022-08-31T06:42:56.012Z,1.67
2022-08-31T06:45:31.943Z,1.80
2022-08-31T06:48:17.817Z,1.50
2022-08-31T06:50:44.392Z,1.95
2022-08-31T06:53:10.888Z,1.95
2022-08-31T06:56:20.151Z,1.52
2022-08-31T06:59:13.697Z,1.85
2022-08-31T07:01:54.930Z,1.48
2022-08-31T07:04:34.629Z,1.48
2022-08-31T07:07:01.760Z,1.53
2022-08-31T07:09:28.579Z,1.42
2022-08-31T07:11:55.095Z,1.50
2022-08-31T07:14:24.426Z,1.52
2022-08-31T07:16:54.772Z,1.50
2022-08-31T07:19:22.017Z,1.45
2022-08-31T07:21:54.640Z,0.98
2022-08-31T07:24:25.631Z,1.30
2022-08-31T07:26:58.068Z,1.10
2022-08-31T07:29:34.056Z,1.40
2022-08-31T07:32:00.596Z,1.05
2022-08-31T07:34:30.233Z,1.08
2022-08-31T07:37:33.407Z,1.33
2022-08-31T07:40:18.370Z,1.33
2022-08-31T07:42:46.977Z,1.00
2022-08-31T07:45:27.955Z,1.10
2022-08-31T07:47:59.648Z,1.63
2022-08-31T07:50:31.527Z,1.70
2022-08-31T07:53:19.224Z,1.33
2022-08-31T07:56:00.527Z,1.02
2022-08-31T07:58:47.718Z,1.20
2022-08-31T08:01:15.011Z,0.90
2022-08-31T08:03:43.998Z,1.30
2022-08-31T08:06:45.294Z,0.95
2022-08-31T08:09:28.177Z,1.10
2022-08-31T08:12:06.397Z,0.82
2022-08-31T08:14:58.929Z,1.13
2022-08-31T08:17:36.920Z,1.00
2022-08-31T08:20:11.648Z,0.95
2022-08-31T08:22:54.211Z,1.02
2022-08-31T08:25:34.795Z,1.20
2022-08-31T08:28:43.340Z,1.00
2022-08-31T08:31:15.672Z,0.98
2022-08-31T08:33:43.473Z,1.15
2022-08-31T08:36:10.121Z,1.55
2022-08-31T08:38:41.055Z,1.50
2022-08-31T08:41:14.043Z,1.15
2022-08-31T08:43:44.262Z,1.20
2022-08-31T08:46:34.543Z,1.00
2022-08-31T08:49:13.091Z,0.88
2022-08-31T08:51:39.901Z,1.27
2022-08-31T08:54:13.946Z,1.05
2022-08-31T08:56:47.070Z,1.00
2022-08-31T08:59:19.977Z,1.30
2022-08-31T09:01:52.967Z,1.20
2022-08-31T09:04:44.117Z,1.02
2022-08-31T09:07:59.714Z,1.65
2022-08-31T09:10:33.460Z,1.35
2022-08-31T09:13:30.174Z,0.95
2022-08-31T09:16:22.364Z,1.20
2022-08-31T09:18:55.109Z,0.90
2022-08-31T09:21:31.205Z,1.73
2022-08-31T09:24:02.562Z,1.48
2022-08-31T09:27:17.791Z,1.50
2022-08-31T09:29:58.407Z,1.30
2022-08-31T09:32:32.231Z,1.25
2022-08-31T09:35:09.113Z,1.10
2022-08-31T09:37:48.762Z,1.10
2022-08-31T09:40:23.675Z,0.95
2022-08-31T09:43:07.618Z,1.25
2022-08-31T09:45:41.225Z,1.02
2022-08-31T09:48:08.932Z,1.30
2022-08-31T09:50:46.849Z,1.50
2022-08-31T09:54:00.162Z,1.17
2022-08-31T09:56:27.695Z,1.40
2022-08-31T09:59:01.684Z,1.13
2022-08-31T10:01:43.012Z,0.90
2022-08-31T10:04:27.097Z,1.25
2022-08-31T10:07:11.256Z,1.20
2022-08-31T10:09:57.723Z,1.17
2022-08-31T10:12:39.458Z,1.00
2022-08-31T10:15:45.059Z,0.93
2022-08-31T10:18:28.729Z,1.25
2022-08-31T10:21:09.065Z,1.02
2022-08-31T10:23:42.852Z,1.38
2022-08-31T10:26:18.794Z,1.25
2022-08-31T10:28:51.476Z,0.90
2022-08-31T10:31:29.986Z,1.30
2022-08-31T10:34:30.678Z,1.10
2022-08-31T10:37:12.488Z,1.27
2022-08-31T10:39:48.688Z,0.95
2022-08-31T10:42:25.670Z,0.90
2022-08-31T10:45:03.424Z,1.20
2022-08-31T10:47:34.055Z,1.10
2022-08-31T10:50:03.443Z,1.00
2022-08-31T10:52:56.599Z,1.23
2022-08-31T10:55:36.110Z,1.00
2022-08-31T10:58:17.563Z,1.30
2022-08-31T11:01:00.632Z,1.10
2022-08-31T11:03:59.814Z,0.98
2022-08-31T11:06:44.979Z,1.08
2022-08-31T11:09:22.607Z,0.73
2022-08-31T11:12:04.933Z,1.20
2022-08-31T11:14:45.412Z,0.98
2022-08-31T11:17:40.994Z,1.30
2022-08-31T11:20:25.459Z,1.00
2022-08-31T11:23:05.525Z,1.08
2022-08-31T11:26:07.060Z,1.10
2022-08-31T11:28:42.810Z,0.90
2022-08-31T11:31:23.585Z,1.00
2022-08-31T11:34:15.115Z,1.15
2022-08-31T11:36:56.519Z,1.30
2022-08-31T11:39:35.532Z,0.98
2022-08-31T11:42:28.292Z,1.13
2022-08-31T11:45:05.522Z,0.98
2022-08-31T11:47:35.556Z,0.93
2022-08-31T11:50:10.217Z,0.98
2022-08-31T11:52:36.999Z,1.40
2022-08-31T11:55:28.417Z,0.90
2022-08-31T11:58:07.197Z,1.05
2022-08-31T12:00:52.270Z,1.27
2022-08-31T12:03:38.933Z,0.95
2022-08-31T12:06:10.483Z,1.08
2022-08-31T12:08:52.254Z,1.13
2022-08-31T12:11:49.605Z,1.10
2022-08-31T12:14:34.781Z,1.45
2022-08-31T12:17:21.264Z,1.30
2022-08-31T12:20:09.078Z,1.13
2022-08-31T12:23:24.437Z,1.17
2022-08-31T12:26:24.896Z,1.10
2022-08-31T12:29:09.989Z,0.73
2022-08-31T12:31:39.785Z,1.08
2022-08-31T12:34:18.057Z,1.17
2022-08-31T12:36:45.033Z,1.13
2022-08-31T12:39:25.759Z,1.17
2022-08-31T12:42:02.726Z,1.00
2022-08-31T12:44:33.127Z,0.90
2022-08-31T12:47:05.849Z,1.10
2022-08-31T12:50:06.600Z,0.80
2022-08-31T12:52:40.675Z,1.20
2022-08-31T12:55:34.563Z,1.00
2022-08-31T12:58:17.378Z,1.10
2022-08-31T13:00:45.374Z,0.80
2022-08-31T13:03:24.238Z,1.00
2022-08-31T13:06:13.716Z,0.90
2022-08-31T13:08:49.898Z,0.95
2022-08-31T13:11:24.528Z,0.80
2022-08-31T13:13:53.157Z,1.23
2022-08-31T13:16:20.437Z,0.82
2022-08-31T13:18:47.651Z,1.08
2022-08-31T13:21:21.898Z,0.80
2022-08-31T13:23:48.816Z,0.90
2022-08-31T13:26:23.033Z,1.00
2022-08-31T13:28:58.753Z,1.10
2022-08-31T13:31:35.533Z,1.02
2022-08-31T13:34:07.237Z,1.15
2022-08-31T13:36:40.151Z,0.95
2022-08-31T13:39:21.900Z,1.20
2022-08-31T13:42:03.126Z,1.23
2022-08-31T13:44:39.191Z,1.02
2022-08-31T13:47:19.229Z,0.90
2022-08-31T13:49:48.025Z,1.00
2022-08-31T13:52:26.081Z,1.13
2022-08-31T13:55:01.709Z,1.00
2022-08-31T13:57:32.863Z,1.23
2022-08-31T14:00:26.374Z,0.80
2022-08-31T14:05:30.686Z,1.05
2022-08-31T14:08:02.290Z,0.90
2022-08-31T14:10:36.791Z,1.10
2022-08-31T14:13:13.863Z,1.00
2022-08-31T14:15:56.264Z,1.05
2022-08-31T14:18:37.694Z,1.10
2022-08-31T14:21:20.462Z,1.10
2022-08-31T14:23:54.014Z,1.10
2022-08-31T14:26:26.093Z,1.13
2022-08-31T14:28:55.986Z,1.00
2022-08-31T14:31:32.702Z,1.20
2022-08-31T14:34:09.500Z,1.30
2022-08-31T14:36:44.638Z,1.10
2022-08-31T14:39:11.605Z,1.30
2022-08-31T14:41:38.242Z,0.90
2022-08-31T14:44:10.038Z,0.90
2022-08-31T14:46:41.749Z,1.05
2022-08-31T14:49:09.609Z,0.90
2022-08-31T14:51:39.131Z,0.90
2022-08-31T14:54:08.977Z,0.98
2022-08-31T14:56:39.842Z,1.03
2022-08-31T14:59:12.458Z,1.13
2022-08-31T15:01:40.187Z,0.88
2022-08-31T15:04:06.769Z,1.30
2022-08-31T15:06:33.915Z,1.45
2022-08-31T15:09:04.550Z,0.85
2022-08-31T15:11:35.303Z,1.13
2022-08-31T15:16:32.069Z,0.90
2022-08-31T15:18:59.144Z,0.80
2022-08-31T15:21:26.542Z,1.10
2022-08-31T15:23:52.984Z,0.80
2022-08-31T15:26:21.520Z,1.15
2022-08-31T15:28:52.441Z,0.90
2022-08-31T15:31:23.585Z,0.90
2022-08-31T15:33:55.310Z,1.30
2022-08-31T15:36:24.938Z,1.00
2022-08-31T15:38:55.448Z,1.05
2022-08-31T15:41:23.088Z,1.10
2022-08-31T15:43:51.471Z,0.80
2022-08-31T15:46:39.742Z,0.85
2022-08-31T15:49:09.705Z,1.38
2022-08-31T15:51:50.192Z,1.13
2022-08-31T15:54:22.535Z,1.10
2022-08-31T15:56:55.511Z,0.75
2022-08-31T15:59:22.882Z,1.17
2022-08-31T16:01:51.432Z,1.08
2022-08-31T16:04:23.590Z,1.27
2022-08-31T16:06:52.069Z,1.00
2022-08-31T16:09:20.561Z,1.17
2022-08-31T16:11:48.351Z,1.20
2022-08-31T16:14:16.367Z,1.23
2022-08-31T16:16:45.366Z,1.00
2022-08-31T16:19:27.751Z,1.10
2022-08-31T16:22:00.249Z,0.93
2022-08-31T16:24:26.743Z,1.23
2022-08-31T16:26:56.470Z,0.90
2022-08-31T16:29:25.128Z,0.90
2022-08-31T16:31:51.641Z,1.20
2022-08-31T16:34:19.681Z,1.33
2022-08-31T16:36:49.969Z,1.17
2022-08-31T16:39:18.007Z,0.77
2022-08-31T16:41:45.759Z,0.98
2022-08-31T16:44:19.918Z,1.38
2022-08-31T16:46:46.764Z,1.10
2022-08-31T16:49:31.823Z,1.02
2022-08-31T16:51:58.336Z,1.17
2022-08-31T16:54:27.758Z,0.93
2022-08-31T16:56:57.621Z,0.90
2022-08-31T16:59:31.318Z,0.90
2022-08-31T17:01:58.379Z,1.17
2022-08-31T17:07:16.230Z,0.70
2022-08-31T17:09:43.890Z,0.90
2022-08-31T17:12:13.906Z,0.80
2022-08-31T17:14:47.192Z,0.90
2022-08-31T17:17:17.299Z,1.23
2022-08-31T17:19:45.677Z,1.80
2022-08-31T17:22:23.264Z,1.17
2022-08-31T17:24:56.546Z,8.27
2022-08-31T17:27:24.949Z,1.70
2022-08-31T17:29:53.909Z,1.10
2022-08-31T17:32:23.421Z,1.20
2022-08-31T17:34:51.451Z,1.20
2022-08-31T17:37:21.477Z,1.20
2022-08-31T17:39:50.611Z,1.10
2022-08-31T17:42:20.942Z,1.33
2022-08-31T17:44:50.323Z,1.08
2022-08-31T17:47:18.252Z,1.10
2022-08-31T17:49:46.711Z,1.00
2022-08-31T17:52:13.604Z,1.02
2022-08-31T17:54:43.197Z,1.23
2022-08-31T17:57:12.945Z,1.20
2022-08-31T17:59:42.490Z,1.00
2022-08-31T18:02:12.615Z,1.15
2022-08-31T18:04:40.251Z,1.25
2022-08-31T18:07:09.052Z,0.95
2022-08-31T18:09:39.422Z,1.50
2022-08-31T18:12:06.693Z,1.33
2022-08-31T18:14:34.326Z,1.20
2022-08-31T18:17:03.026Z,1.60
2022-08-31T18:19:29.949Z,1.25
2022-08-31T18:21:56.621Z,0.73
2022-08-31T18:24:23.350Z,1.08
2022-08-31T18:26:51.573Z,1.00
2022-08-31T18:29:23.916Z,1.30
2022-08-31T18:31:53.888Z,0.95
2022-08-31T18:34:23.336Z,1.10
2022-08-31T18:36:51.729Z,1.13
2022-08-31T18:39:34.774Z,1.20
2022-08-31T18:42:35.611Z,1.42
2022-08-31T18:45:18.505Z,1.30
2022-08-31T18:50:44.399Z,1.13
2022-08-31T18:53:15.063Z,1.33
2022-08-31T18:55:43.834Z,1.17
2022-08-31T18:58:10.423Z,1.27
2022-08-31T19:00:37.406Z,0.90
2022-08-31T19:03:04.512Z,1.05
2022-08-31T19:05:32.612Z,1.48
2022-08-31T19:08:00.464Z,1.20
2022-08-31T19:10:27.895Z,1.20
2022-08-31T19:12:55.736Z,1.00
2022-08-31T19:15:25.551Z,1.00
2022-08-31T19:18:01.896Z,1.08
2022-08-31T19:20:29.315Z,1.00
2022-08-31T19:22:56.092Z,1.27
2022-08-31T19:25:23.032Z,1.30
2022-08-31T19:27:51.875Z,1.13
2022-08-31T19:30:24.458Z,1.00
2022-08-31T19:32:53.503Z,1.30
2022-08-31T19:35:20.254Z,1.48
2022-08-31T19:37:47.309Z,1.45
2022-08-31T19:40:17.884Z,1.23
2022-08-31T19:43:42.379Z,1.15
2022-08-31T19:45:42.842Z,1.13
2022-08-31T19:48:10.050Z,1.15
2022-08-31T19:50:41.610Z,1.17
2022-08-31T19:53:12.522Z,1.35
2022-08-31T19:55:50.137Z,1.40
2022-08-31T19:58:18.355Z,1.15
2022-08-31T20:00:44.942Z,1.10
2022-08-31T20:03:15.365Z,1.47
2022-08-31T20:05:43.456Z,1.27
2022-08-31T20:08:10.663Z,1.30
2022-08-31T20:10:42.116Z,1.42
2022-08-31T20:13:10.004Z,1.17
2022-08-31T20:15:41.866Z,1.50
2022-08-31T20:18:11.223Z,1.30
2022-08-31T20:20:48.242Z,1.20
2022-08-31T20:23:17.049Z,1.10
2022-08-31T20:25:45.442Z,1.30
2022-08-31T20:28:12.871Z,1.25
2022-08-31T20:30:41.530Z,1.60
2022-08-31T20:33:10.618Z,1.23
2022-08-31T20:35:47.474Z,1.20
2022-08-31T20:38:16.400Z,1.05
2022-08-31T20:40:44.794Z,1.85
2022-08-31T20:43:12.778Z,1.40
2022-08-31T20:45:41.372Z,1.65
2022-08-31T20:48:26.978Z,1.50
2022-08-31T20:50:53.591Z,1.55
2022-08-31T20:53:26.386Z,1.48
2022-08-31T20:56:07.953Z,1.60
2022-08-31T20:58:34.724Z,1.17
2022-08-31T21:01:05.956Z,1.33
2022-08-31T21:03:33.399Z,1.35
2022-08-31T21:06:08.210Z,1.30
2022-08-31T21:08:38.223Z,1.70
2022-08-31T21:11:15.766Z,1.43
2022-08-31T21:13:42.808Z,1.38
2022-08-31T21:16:09.853Z,1.10
2022-08-31T21:18:37.388Z,1.65
2022-08-31T21:21:07.319Z,1.33
2022-08-31T21:23:36.505Z,1.75
2022-08-31T21:26:04.887Z,1.52
2022-08-31T21:28:31.326Z,2.15
2022-08-31T21:31:15.779Z,1.60
2022-08-31T21:33:46.255Z,2.20
2022-08-31T21:36:15.489Z,1.33
2022-08-31T21:38:43.506Z,1.85
2022-08-31T21:41:11.631Z,1.52
2022-08-31T21:43:38.740Z,2.55
2022-08-31T21:46:14.391Z,1.35
2022-08-31T21:48:43.191Z,1.67
2022-08-31T21:51:21.265Z,1.63
2022-08-31T21:53:53.837Z,1.30
2022-08-31T21:56:22.598Z,1.75
2022-08-31T21:58:49.971Z,1.50
2022-08-31T22:01:20.362Z,1.55
2022-08-31T22:03:48.855Z,1.20
2022-08-31T22:06:22.180Z,1.65
2022-08-31T22:09:00.196Z,1.10
2022-08-31T22:11:30.551Z,2.03
2022-08-31T22:13:59.145Z,1.60
2022-08-31T22:16:27.051Z,1.20
2022-08-31T22:19:01.666Z,1.27
2022-08-31T22:21:32.248Z,1.20
2022-08-31T22:24:01.983Z,1.48
2022-08-31T22:26:30.312Z,1.45
2022-08-31T22:28:56.967Z,1.42
2022-08-31T22:31:25.164Z,1.30
2022-08-31T22:33:52.022Z,1.27
2022-08-31T22:36:34.488Z,1.35
2022-08-31T22:39:05.234Z,1.83
2022-08-31T22:41:33.055Z,1.63
2022-08-31T22:44:00.626Z,1.50
2022-08-31T22:46:28.328Z,1.27
2022-08-31T22:48:55.131Z,1.13
2022-08-31T22:51:22.381Z,1.83
2022-08-31T22:53:51.499Z,1.00
2022-08-31T22:56:20.550Z,1.35
2022-08-31T22:58:47.375Z,1.15
2022-08-31T23:01:27.356Z,1.40
2022-08-31T23:03:56.944Z,1.58
2022-08-31T23:06:24.895Z,1.42
2022-08-31T23:08:53.122Z,1.60
2022-08-31T23:11:21.930Z,1.17
2022-08-31T23:13:53.746Z,1.33
2022-08-31T23:16:24.932Z,1.73
2022-08-31T23:19:00.840Z,1.23
2022-08-31T23:21:31.014Z,1.08
2022-08-31T23:23:59.697Z,1.17
2022-08-31T23:26:28.095Z,1.65
2022-08-31T23:28:59.312Z,1.20
2022-08-31T23:31:27.519Z,1.50
2022-08-31T23:33:54.311Z,1.42
2022-08-31T23:36:26.015Z,1.30
2022-08-31T23:38:54.988Z,1.10
2022-08-31T23:41:26.062Z,1.25
2022-08-31T23:43:53.802Z,1.27
2022-08-31T23:46:22.019Z,1.25
2022-08-31T23:48:48.565Z,1.48
2022-08-31T23:51:15.673Z,1.10
2022-08-31T23:53:45.927Z,1.65
2022-08-31T23:56:12.968Z,1.13
2022-08-31T23:58:40.228Z,1.13
